sensor_id;sensor_type;location;lat;lon;timestamp;pressure;altitude;pressure_sealevel;temperature;humidity
46583;BME280;32309;48.858;8.252;2023-03-21T00:00:34;100591.53;;;10.19;71.71
46583;BME280;32309;48.858;8.252;2023-03-21T00:02:38;100585.59;;;10.17;71.55
46583;BME280;32309;48.858;8.252;2023-03-21T00:04:39;100586.50;;;10.16;72.33
46583;BME280;32309;48.858;8.252;2023-03-21T00:06:39;100589.16;;;10.14;72.67
46583;BME280;32309;48.858;8.252;2023-03-21T00:08:40;100583.25;;;10.12;72.21
46583;BME280;32309;48.858;8.252;2023-03-21T00:10:40;100575.56;;;10.11;72.26
46583;BME280;32309;48.858;8.252;2023-03-21T00:12:40;100582.47;;;10.10;72.03
46583;BME280;32309;48.858;8.252;2023-03-21T00:14:41;100580.78;;;10.09;71.06
46583;BME280;32309;48.858;8.252;2023-03-21T00:16:42;100574.72;;;10.10;71.57
46583;BME280;32309;48.858;8.252;2023-03-21T00:18:45;100573.19;;;10.06;71.84
46583;BME280;32309;48.858;8.252;2023-03-21T00:23:01;100570.78;;;10.03;71.68
46583;BME280;32309;48.858;8.252;2023-03-21T00:25:02;100569.00;;;10.04;72.27
46583;BME280;32309;48.858;8.252;2023-03-21T00:27:03;100570.00;;;10.01;72.44
46583;BME280;32309;48.858;8.252;2023-03-21T00:29:03;100573.50;;;10.00;72.28
46583;BME280;32309;48.858;8.252;2023-03-21T00:31:04;100575.34;;;9.98;72.01
46583;BME280;32309;48.858;8.252;2023-03-21T00:33:04;100567.66;;;9.96;72.10
46583;BME280;32309;48.858;8.252;2023-03-21T00:35:06;100565.97;;;9.95;72.20
46583;BME280;32309;48.858;8.252;2023-03-21T00:37:06;100567.88;;;9.92;72.36
46583;BME280;32309;48.858;8.252;2023-03-21T00:39:08;100569.72;;;9.90;72.03
46583;BME280;32309;48.858;8.252;2023-03-21T00:41:10;100561.09;;;9.89;72.44
46583;BME280;32309;48.858;8.252;2023-03-21T00:43:13;100559.41;;;9.88;72.83
46583;BME280;32309;48.858;8.252;2023-03-21T00:45:16;100558.59;;;9.88;73.13
46583;BME280;32309;48.858;8.252;2023-03-21T00:47:18;100559.50;;;9.87;72.47
46583;BME280;32309;48.858;8.252;2023-03-21T00:49:18;100560.41;;;9.86;73.03
46583;BME280;32309;48.858;8.252;2023-03-21T00:51:20;100553.56;;;9.85;73.16
46583;BME280;32309;48.858;8.252;2023-03-21T00:53:25;100549.38;;;9.82;73.20
46583;BME280;32309;48.858;8.252;2023-03-21T00:55:25;100546.84;;;9.80;72.14
46583;BME280;32309;48.858;8.252;2023-03-21T00:57:26;100552.03;;;9.80;73.27
46583;BME280;32309;48.858;8.252;2023-03-21T00:59:26;100546.03;;;9.80;72.96
46583;BME280;32309;48.858;8.252;2023-03-21T01:01:26;100546.94;;;9.79;72.20
46583;BME280;32309;48.858;8.252;2023-03-21T01:03:31;100545.31;;;9.76;72.70
46583;BME280;32309;48.858;8.252;2023-03-21T01:05:43;100548.06;;;9.73;73.15
46583;BME280;32309;48.858;8.252;2023-03-21T01:08:04;100547.25;;;9.73;72.85
46583;BME280;32309;48.858;8.252;2023-03-21T01:10:04;100544.66;;;9.73;73.32
46583;BME280;32309;48.858;8.252;2023-03-21T01:12:05;100541.22;;;9.72;73.62
46583;BME280;32309;48.858;8.252;2023-03-21T01:14:05;100540.47;;;9.70;73.39
46583;BME280;32309;48.858;8.252;2023-03-21T01:16:06;100541.38;;;9.69;73.46
46583;BME280;32309;48.858;8.252;2023-03-21T01:18:07;100537.94;;;9.69;73.67
46583;BME280;32309;48.858;8.252;2023-03-21T01:20:08;100539.69;;;9.68;73.40
46583;BME280;32309;48.858;8.252;2023-03-21T01:22:09;100542.38;;;9.66;73.36
46583;BME280;32309;48.858;8.252;2023-03-21T01:24:10;100539.78;;;9.66;73.85
46583;BME280;32309;48.858;8.252;2023-03-21T01:26:11;100533.78;;;9.66;73.54
46583;BME280;32309;48.858;8.252;2023-03-21T01:28:11;100539.84;;;9.65;73.93
46583;BME280;32309;48.858;8.252;2023-03-21T01:30:11;100540.75;;;9.64;74.01
46583;BME280;32309;48.858;8.252;2023-03-21T01:32:12;100540.00;;;9.62;73.98
46583;BME280;32309;48.858;8.252;2023-03-21T01:34:13;100537.41;;;9.62;74.05
46583;BME280;32309;48.858;8.252;2023-03-21T01:36:20;100538.38;;;9.59;73.60
46583;BME280;32309;48.858;8.252;2023-03-21T01:38:21;100539.25;;;9.60;74.32
46583;BME280;32309;48.858;8.252;2023-03-21T01:40:22;100532.38;;;9.59;74.08
46583;BME280;32309;48.858;8.252;2023-03-21T01:42:24;100539.47;;;9.55;74.33
46583;BME280;32309;48.858;8.252;2023-03-21T01:44:24;100535.13;;;9.56;74.22
46583;BME280;32309;48.858;8.252;2023-03-21T01:46:31;100532.69;;;9.53;74.14
46583;BME280;32309;48.858;8.252;2023-03-21T01:48:33;100524.16;;;9.51;74.19
46583;BME280;32309;48.858;8.252;2023-03-21T01:50:36;100525.84;;;9.52;73.04
46583;BME280;32309;48.858;8.252;2023-03-21T01:52:39;100522.50;;;9.49;74.51
46583;BME280;32309;48.858;8.252;2023-03-21T01:54:40;100525.06;;;9.49;74.17
46583;BME280;32309;48.858;8.252;2023-03-21T01:56:42;100516.53;;;9.47;74.57
46583;BME280;32309;48.858;8.252;2023-03-21T01:58:45;100519.22;;;9.46;74.30
46583;BME280;32309;48.858;8.252;2023-03-21T02:00:48;100517.56;;;9.45;74.34
46583;BME280;32309;48.858;8.252;2023-03-21T02:02:50;100511.59;;;9.43;74.56
46583;BME280;32309;48.858;8.252;2023-03-21T02:04:50;100509.03;;;9.43;74.40
46583;BME280;32309;48.858;8.252;2023-03-21T02:06:56;100511.69;;;9.41;74.41
46583;BME280;32309;48.858;8.252;2023-03-21T02:09:03;100514.34;;;9.40;74.18
46583;BME280;32309;48.858;8.252;2023-03-21T02:11:07;100518.75;;;9.38;74.21
46583;BME280;32309;48.858;8.252;2023-03-21T02:13:09;100510.22;;;9.36;74.57
46583;BME280;32309;48.858;8.252;2023-03-21T02:15:10;100511.97;;;9.35;74.89
46583;BME280;32309;48.858;8.252;2023-03-21T02:17:17;100512.06;;;9.33;74.67
46583;BME280;32309;48.858;8.252;2023-03-21T02:19:40;100504.44;;;9.30;74.70
46583;BME280;32309;48.858;8.252;2023-03-21T02:26:50;100498.59;;;9.27;74.70
46583;BME280;32309;48.858;8.252;2023-03-21T02:28:58;100495.22;;;9.25;74.57
46583;BME280;32309;48.858;8.252;2023-03-21T02:33:40;100496.38;;;9.19;74.72
46583;BME280;32309;48.858;8.252;2023-03-21T02:38:08;100491.47;;;9.13;75.38
46583;BME280;32309;48.858;8.252;2023-03-21T02:40:19;100489.06;;;9.10;75.03
46583;BME280;32309;48.858;8.252;2023-03-21T02:45:02;100490.22;;;9.03;75.23
46583;BME280;32309;48.858;8.252;2023-03-21T02:47:19;100486.06;;;9.00;75.29
46583;BME280;32309;48.858;8.252;2023-03-21T02:49:26;100482.88;;;8.95;75.01
46583;BME280;32309;48.858;8.252;2023-03-21T02:51:29;100481.19;;;8.94;76.31
46583;BME280;32309;48.858;8.252;2023-03-21T02:53:32;100487.34;;;8.91;75.67
46583;BME280;32309;48.858;8.252;2023-03-21T02:55:36;100484.97;;;8.87;76.34
46583;BME280;32309;48.858;8.252;2023-03-21T02:57:42;100489.38;;;8.85;75.36
46583;BME280;32309;48.858;8.252;2023-03-21T02:59:44;100481.69;;;8.83;75.86
46583;BME280;32309;48.858;8.252;2023-03-21T03:01:45;100467.09;;;8.82;76.00
46583;BME280;32309;48.858;8.252;2023-03-21T03:03:45;100474.84;;;8.82;76.33
46583;BME280;32309;48.858;8.252;2023-03-21T03:05:51;100467.25;;;8.79;75.47
46583;BME280;32309;48.858;8.252;2023-03-21T03:10:17;100469.97;;;8.76;75.91
46583;BME280;32309;48.858;8.252;2023-03-21T03:15:02;100470.03;;;8.74;76.40
46583;BME280;32309;48.858;8.252;2023-03-21T03:19:17;100466.75;;;8.71;75.74
46583;BME280;32309;48.858;8.252;2023-03-21T03:21:30;100459.06;;;8.69;75.78
46583;BME280;32309;48.858;8.252;2023-03-21T03:25:45;100460.94;;;8.65;75.81
46583;BME280;32309;48.858;8.252;2023-03-21T03:27:48;100454.06;;;8.66;75.81
46583;BME280;32309;48.858;8.252;2023-03-21T03:29:51;100456.75;;;8.63;74.70
46583;BME280;32309;48.858;8.252;2023-03-21T03:33:55;100462.78;;;8.63;75.92
46583;BME280;32309;48.858;8.252;2023-03-21T03:35:59;100456.00;;;8.61;75.86
46583;BME280;32309;48.858;8.252;2023-03-21T03:38:02;100454.34;;;8.60;74.84
46583;BME280;32309;48.858;8.252;2023-03-21T03:42:08;100455.31;;;8.57;75.72
46583;BME280;32309;48.858;8.252;2023-03-21T03:44:14;100451.03;;;8.56;75.77
46583;BME280;32309;48.858;8.252;2023-03-21T03:46:22;100446.84;;;8.54;75.31
46583;BME280;32309;48.858;8.252;2023-03-21T03:48:28;100456.56;;;8.48;75.75
46583;BME280;32309;48.858;8.252;2023-03-21T03:52:41;100457.56;;;8.46;75.83
46583;BME280;32309;48.858;8.252;2023-03-21T03:54:48;100454.25;;;8.42;75.63
46583;BME280;32309;48.858;8.252;2023-03-21T03:56:51;100458.63;;;8.40;75.80
46583;BME280;32309;48.858;8.252;2023-03-21T03:58:51;100463.78;;;8.40;76.03
46583;BME280;32309;48.858;8.252;2023-03-21T04:00:54;100464.78;;;8.38;75.74
46583;BME280;32309;48.858;8.252;2023-03-21T04:02:55;100461.50;;;8.34;75.22
46583;BME280;32309;48.858;8.252;2023-03-21T04:04:57;100468.47;;;8.32;75.63
46583;BME280;32309;48.858;8.252;2023-03-21T04:06:58;100473.66;;;8.32;75.63
46583;BME280;32309;48.858;8.252;2023-03-21T04:08:59;100471.06;;;8.32;76.04
46583;BME280;32309;48.858;8.252;2023-03-21T04:11:00;100462.53;;;8.30;75.88
46583;BME280;32309;48.858;8.252;2023-03-21T04:13:01;100464.34;;;8.28;75.64
46583;BME280;32309;48.858;8.252;2023-03-21T04:15:02;100473.91;;;8.26;75.83
46583;BME280;32309;48.858;8.252;2023-03-21T04:17:02;100473.97;;;8.24;75.84
46583;BME280;32309;48.858;8.252;2023-03-21T04:19:03;100468.88;;;8.23;75.37
46583;BME280;32309;48.858;8.252;2023-03-21T04:21:08;100466.38;;;8.21;76.01
46583;BME280;32309;48.858;8.252;2023-03-21T04:23:09;100470.00;;;8.17;75.78
46583;BME280;32309;48.858;8.252;2023-03-21T04:25:10;100467.47;;;8.15;75.71
46583;BME280;32309;48.858;8.252;2023-03-21T04:27:10;100464.13;;;8.13;75.92
46583;BME280;32309;48.858;8.252;2023-03-21T04:29:10;100472.03;;;8.10;76.19
46583;BME280;32309;48.858;8.252;2023-03-21T04:31:11;100473.75;;;8.10;76.02
46583;BME280;32309;48.858;8.252;2023-03-21T04:33:12;100467.75;;;8.09;75.96
46583;BME280;32309;48.858;8.252;2023-03-21T04:35:12;100466.97;;;8.07;75.35
46583;BME280;32309;48.858;8.252;2023-03-21T04:37:12;100467.06;;;8.06;75.88
46583;BME280;32309;48.858;8.252;2023-03-21T04:39:14;100473.19;;;8.03;75.87
46583;BME280;32309;48.858;8.252;2023-03-21T04:41:15;100467.28;;;8.01;75.96
46583;BME280;32309;48.858;8.252;2023-03-21T04:43:15;100468.09;;;8.02;75.70
46583;BME280;32309;48.858;8.252;2023-03-21T04:45:16;100470.81;;;7.98;75.83
46583;BME280;32309;48.858;8.252;2023-03-21T04:47:16;100475.13;;;7.98;76.38
46583;BME280;32309;48.858;8.252;2023-03-21T04:49:19;100470.84;;;7.97;76.60
46583;BME280;32309;48.858;8.252;2023-03-21T04:51:20;100466.56;;;7.97;75.58
46583;BME280;32309;48.858;8.252;2023-03-21T04:53:20;100470.03;;;7.96;75.35
46583;BME280;32309;48.858;8.252;2023-03-21T04:55:20;100466.66;;;7.94;74.49
46583;BME280;32309;48.858;8.252;2023-03-21T04:57:21;100454.81;;;7.90;76.07
46583;BME280;32309;48.858;8.252;2023-03-21T04:59:21;100462.63;;;7.89;75.64
46583;BME280;32309;48.858;8.252;2023-03-21T05:01:21;100458.56;;;7.83;75.72
46583;BME280;32309;48.858;8.252;2023-03-21T05:03:22;100456.06;;;7.81;76.22
46583;BME280;32309;48.858;8.252;2023-03-21T05:05:23;100451.09;;;7.77;76.11
46583;BME280;32309;48.858;8.252;2023-03-21T05:07:24;100458.00;;;7.76;75.46
46583;BME280;32309;48.858;8.252;2023-03-21T05:09:25;100456.38;;;7.74;75.38
46583;BME280;32309;48.858;8.252;2023-03-21T05:11:26;100449.53;;;7.73;76.12
46583;BME280;32309;48.858;8.252;2023-03-21T05:13:29;100452.19;;;7.71;75.78
46583;BME280;32309;48.858;8.252;2023-03-21T05:15:30;100450.66;;;7.67;76.04
46583;BME280;32309;48.858;8.252;2023-03-21T05:17:30;100448.06;;;7.67;76.22
46583;BME280;32309;48.858;8.252;2023-03-21T05:19:31;100447.28;;;7.65;76.34
46583;BME280;32309;48.858;8.252;2023-03-21T05:21:34;100450.66;;;7.67;76.15
46583;BME280;32309;48.858;8.252;2023-03-21T05:23:42;100450.66;;;7.67;75.89
46583;BME280;32309;48.858;8.252;2023-03-21T05:25:45;100448.91;;;7.68;75.81
46583;BME280;32309;48.858;8.252;2023-03-21T05:27:46;100439.53;;;7.65;76.07
46583;BME280;32309;48.858;8.252;2023-03-21T05:29:53;100449.94;;;7.63;75.88
46583;BME280;32309;48.858;8.252;2023-03-21T05:40:03;100454.66;;;7.54;75.60
46583;BME280;32309;48.858;8.252;2023-03-21T05:42:08;100456.69;;;7.45;76.06
46583;BME280;32309;48.858;8.252;2023-03-21T05:44:08;100458.59;;;7.42;76.28
46583;BME280;32309;48.858;8.252;2023-03-21T05:46:09;100461.19;;;7.40;76.34
46583;BME280;32309;48.858;8.252;2023-03-21T05:48:12;100460.31;;;7.41;76.86
46583;BME280;32309;48.858;8.252;2023-03-21T05:50:12;100457.72;;;7.41;76.78
46583;BME280;32309;48.858;8.252;2023-03-21T05:52:13;100458.59;;;7.42;76.48
46583;BME280;32309;48.858;8.252;2023-03-21T05:54:13;100456.03;;;7.40;77.14
46583;BME280;32309;48.858;8.252;2023-03-21T05:56:15;100461.16;;;7.42;77.15
46583;BME280;32309;48.858;8.252;2023-03-21T05:58:15;100461.03;;;7.45;76.90
46583;BME280;32309;48.858;8.252;2023-03-21T06:00:16;100459.28;;;7.45;76.89
46583;BME280;32309;48.858;8.252;2023-03-21T06:02:17;100463.47;;;7.48;76.73
46583;BME280;32309;48.858;8.252;2023-03-21T06:04:17;100462.50;;;7.50;77.40
46583;BME280;32309;48.858;8.252;2023-03-21T06:06:17;100469.28;;;7.53;77.29
46583;BME280;32309;48.858;8.252;2023-03-21T06:08:18;100470.88;;;7.56;77.44
46583;BME280;32309;48.858;8.252;2023-03-21T06:10:18;100471.53;;;7.61;77.08
46583;BME280;32309;48.858;8.252;2023-03-21T06:12:19;100467.94;;;7.65;77.18
46583;BME280;32309;48.858;8.252;2023-03-21T06:14:19;100471.22;;;7.69;77.35
46583;BME280;32309;48.858;8.252;2023-03-21T06:16:20;100478.00;;;7.71;76.94
46583;BME280;32309;48.858;8.252;2023-03-21T06:18:20;100477.03;;;7.74;76.53
46583;BME280;32309;48.858;8.252;2023-03-21T06:20:21;100471.72;;;7.77;77.00
46583;BME280;32309;48.858;8.252;2023-03-21T06:22:21;100473.34;;;7.79;76.78
46583;BME280;32309;48.858;8.252;2023-03-21T06:24:21;100485.19;;;7.83;76.57
46583;BME280;32309;48.858;8.252;2023-03-21T06:26:21;100478.25;;;7.86;76.22
46583;BME280;32309;48.858;8.252;2023-03-21T06:28:22;100480.81;;;7.86;76.22
46583;BME280;32309;48.858;8.252;2023-03-21T06:30:22;100475.59;;;7.87;76.21
46583;BME280;32309;48.858;8.252;2023-03-21T06:32:22;100481.47;;;7.91;75.98
46583;BME280;32309;48.858;8.252;2023-03-21T06:34:23;100476.25;;;7.92;76.03
46583;BME280;32309;48.858;8.252;2023-03-21T06:36:23;100479.56;;;7.94;75.75
46583;BME280;32309;48.858;8.252;2023-03-21T06:38:24;100477.72;;;7.98;75.91
46583;BME280;32309;48.858;8.252;2023-03-21T06:40:25;100478.34;;;8.03;76.08
46583;BME280;32309;48.858;8.252;2023-03-21T06:42:25;100484.16;;;8.08;76.40
46583;BME280;32309;48.858;8.252;2023-03-21T06:44:25;100485.53;;;8.15;76.13
46583;BME280;32309;48.858;8.252;2023-03-21T06:46:26;100481.88;;;8.21;75.54
46583;BME280;32309;48.858;8.252;2023-03-21T06:48:26;100477.47;;;8.23;75.47
46583;BME280;32309;48.858;8.252;2023-03-21T06:50:27;100473.78;;;8.29;75.58
46583;BME280;32309;48.858;8.252;2023-03-21T06:52:27;100474.47;;;8.32;74.78
46583;BME280;32309;48.858;8.252;2023-03-21T06:54:27;100469.94;;;8.38;75.35
46583;BME280;32309;48.858;8.252;2023-03-21T06:56:28;100470.78;;;8.38;74.88
46583;BME280;32309;48.858;8.252;2023-03-21T06:58:28;100468.97;;;8.40;74.78
46583;BME280;32309;48.858;8.252;2023-03-21T07:00:28;100468.97;;;8.40;75.26
46583;BME280;32309;48.858;8.252;2023-03-21T07:02:29;100462.97;;;8.40;75.02
46583;BME280;32309;48.858;8.252;2023-03-21T07:04:29;100462.00;;;8.42;74.20
46583;BME280;32309;48.858;8.252;2023-03-21T07:06:29;100467.25;;;8.41;74.64
46583;BME280;32309;48.858;8.252;2023-03-21T07:08:30;100462.91;;;8.41;74.83
46583;BME280;32309;48.858;8.252;2023-03-21T07:10:30;100465.47;;;8.41;74.86
46583;BME280;32309;48.858;8.252;2023-03-21T07:12:31;100463.69;;;8.43;74.87
46583;BME280;32309;48.858;8.252;2023-03-21T07:14:35;100463.69;;;8.43;74.71
46583;BME280;32309;48.858;8.252;2023-03-21T07:16:35;100455.84;;;8.45;74.44
46583;BME280;32309;48.858;8.252;2023-03-21T07:18:35;100460.25;;;8.43;74.88
46583;BME280;32309;48.858;8.252;2023-03-21T07:20:36;100452.41;;;8.44;74.64
46583;BME280;32309;48.858;8.252;2023-03-21T07:22:37;100451.66;;;8.42;74.23
46583;BME280;32309;48.858;8.252;2023-03-21T07:24:37;100443.84;;;8.44;74.78
46583;BME280;32309;48.858;8.252;2023-03-21T07:26:38;100435.19;;;8.45;74.54
46583;BME280;32309;48.858;8.252;2023-03-21T07:28:38;100425.56;;;8.48;74.77
46583;BME280;32309;48.858;8.252;2023-03-21T07:30:38;100430.69;;;8.50;74.24
46583;BME280;32309;48.858;8.252;2023-03-21T07:32:39;100427.13;;;8.53;74.28
46583;BME280;32309;48.858;8.252;2023-03-21T07:34:39;100432.06;;;8.57;74.29
46583;BME280;32309;48.858;8.252;2023-03-21T07:36:41;100431.78;;;8.63;74.59
46583;BME280;32309;48.858;8.252;2023-03-21T07:38:42;100432.41;;;8.69;74.11
46583;BME280;32309;48.858;8.252;2023-03-21T07:40:43;100431.28;;;8.74;73.96
46583;BME280;32309;48.858;8.252;2023-03-21T07:42:47;100431.06;;;8.79;73.69
46583;BME280;32309;48.858;8.252;2023-03-21T07:44:47;100432.50;;;8.85;73.25
46583;BME280;32309;48.858;8.252;2023-03-21T07:46:48;100436.63;;;8.89;73.23
46583;BME280;32309;48.858;8.252;2023-03-21T07:48:48;100444.31;;;8.90;72.68
46583;BME280;32309;48.858;8.252;2023-03-21T07:50:48;100446.97;;;8.89;72.22
46583;BME280;32309;48.858;8.252;2023-03-21T07:52:49;100445.91;;;8.93;72.35
46583;BME280;32309;48.858;8.252;2023-03-21T07:54:49;100434.28;;;9.02;72.23
46583;BME280;32309;48.858;8.252;2023-03-21T07:56:49;100443.34;;;9.10;72.05
46583;BME280;32309;48.858;8.252;2023-03-21T07:58:50;100444.72;;;9.18;71.07
46583;BME280;32309;48.858;8.252;2023-03-21T08:00:50;100448.91;;;9.20;71.06
46583;BME280;32309;48.858;8.252;2023-03-21T08:02:57;100442.50;;;9.27;71.54
46583;BME280;32309;48.858;8.252;2023-03-21T08:04:58;100444.88;;;9.32;71.81
46583;BME280;32309;48.858;8.252;2023-03-21T08:06:58;100442.22;;;9.33;71.11
46583;BME280;32309;48.858;8.252;2023-03-21T08:08:59;100443.97;;;9.33;71.10
46583;BME280;32309;48.858;8.252;2023-03-21T08:11:02;100445.63;;;9.34;71.16
46583;BME280;32309;48.858;8.252;2023-03-21T08:13:03;100444.81;;;9.33;70.83
46583;BME280;32309;48.858;8.252;2023-03-21T08:15:04;100441.97;;;9.38;70.75
46583;BME280;32309;48.858;8.252;2023-03-21T08:17:04;100450.34;;;9.43;70.83
46583;BME280;32309;48.858;8.252;2023-03-21T08:19:05;100448.28;;;9.50;70.95
46583;BME280;32309;48.858;8.252;2023-03-21T08:21:05;100446.31;;;9.55;70.55
46583;BME280;32309;48.858;8.252;2023-03-21T08:23:06;100452.16;;;9.59;70.49
46583;BME280;32309;48.858;8.252;2023-03-21T08:25:06;100446.69;;;9.65;70.05
46583;BME280;32309;48.858;8.252;2023-03-21T08:27:07;100443.78;;;9.71;70.79
46583;BME280;32309;48.858;8.252;2023-03-21T08:29:08;100437.47;;;9.77;70.09
46583;BME280;32309;48.858;8.252;2023-03-21T08:31:08;100439.81;;;9.81;70.40
46583;BME280;32309;48.858;8.252;2023-03-21T08:33:10;100448.16;;;9.87;70.20
46583;BME280;32309;48.858;8.252;2023-03-21T08:35:13;100446.09;;;9.93;70.32
46583;BME280;32309;48.858;8.252;2023-03-21T08:37:15;100454.38;;;10.00;69.53
46583;BME280;32309;48.858;8.252;2023-03-21T08:39:16;100450.13;;;9.99;68.46
46583;BME280;32309;48.858;8.252;2023-03-21T08:41:16;100441.34;;;10.02;68.36
46583;BME280;32309;48.858;8.252;2023-03-21T08:43:18;100437.75;;;10.04;68.96
46583;BME280;32309;48.858;8.252;2023-03-21T08:45:18;100446.38;;;10.05;68.02
46583;BME280;32309;48.858;8.252;2023-03-21T08:47:19;100445.38;;;10.07;68.45
46583;BME280;32309;48.858;8.252;2023-03-21T08:49:19;100446.91;;;10.11;68.81
46583;BME280;32309;48.858;8.252;2023-03-21T08:51:20;100447.88;;;10.09;68.54
46583;BME280;32309;48.858;8.252;2023-03-21T08:53:20;100441.72;;;10.11;69.09
46583;BME280;32309;48.858;8.252;2023-03-21T08:55:21;100444.91;;;10.16;69.68
46583;BME280;32309;48.858;8.252;2023-03-21T08:57:21;100448.31;;;10.17;69.37
46583;BME280;32309;48.858;8.252;2023-03-21T08:59:22;100443.81;;;10.21;68.65
46583;BME280;32309;48.858;8.252;2023-03-21T09:01:22;100444.72;;;10.20;68.70
46583;BME280;32309;48.858;8.252;2023-03-21T09:03:23;100447.19;;;10.23;69.03
46583;BME280;32309;48.858;8.252;2023-03-21T09:05:23;100443.50;;;10.27;68.92
46583;BME280;32309;48.858;8.252;2023-03-21T09:07:25;100442.50;;;10.29;68.44
46583;BME280;32309;48.858;8.252;2023-03-21T09:09:27;100440.72;;;10.30;68.75
46583;BME280;32309;48.858;8.252;2023-03-21T09:11:27;100435.38;;;10.33;69.32
46583;BME280;32309;48.858;8.252;2023-03-21T09:13:28;100433.59;;;10.35;68.80
46583;BME280;32309;48.858;8.252;2023-03-21T09:15:28;100439.50;;;10.37;68.44
46583;BME280;32309;48.858;8.252;2023-03-21T09:17:37;100438.59;;;10.38;68.51
46583;BME280;32309;48.858;8.252;2023-03-21T09:30:06;100449.91;;;10.53;67.97
46583;BME280;32309;48.858;8.252;2023-03-21T09:32:08;100452.41;;;10.55;67.21
46583;BME280;32309;48.858;8.252;2023-03-21T09:34:08;100446.22;;;10.57;68.12
46583;BME280;32309;48.858;8.252;2023-03-21T09:36:09;100452.81;;;10.63;68.16
46583;BME280;32309;48.858;8.252;2023-03-21T09:38:21;100443.94;;;10.67;67.33
46583;BME280;32309;48.858;8.252;2023-03-21T09:42:57;100441.84;;;10.74;67.03
46583;BME280;32309;48.858;8.252;2023-03-21T09:49:29;100432.53;;;10.86;68.05
46583;BME280;32309;48.858;8.252;2023-03-21T09:51:34;100442.78;;;10.89;67.56
46583;BME280;32309;48.858;8.252;2023-03-21T09:53:41;100442.00;;;10.87;66.66
46583;BME280;32309;48.858;8.252;2023-03-21T09:55:43;100449.59;;;10.90;66.65
46583;BME280;32309;48.858;8.252;2023-03-21T09:57:46;100450.53;;;10.89;66.12
46583;BME280;32309;48.858;8.252;2023-03-21T10:00:22;100453.78;;;10.92;66.15
46583;BME280;32309;48.858;8.252;2023-03-21T10:04:48;100454.28;;;10.99;66.30
46583;BME280;32309;48.858;8.252;2023-03-21T10:06:56;100457.72;;;10.99;66.21
46583;BME280;32309;48.858;8.252;2023-03-21T10:09:00;100454.84;;;11.04;66.71
46583;BME280;32309;48.858;8.252;2023-03-21T10:11:08;100445.97;;;11.08;66.31
46583;BME280;32309;48.858;8.252;2023-03-21T10:13:13;100446.63;;;11.12;66.34
46583;BME280;32309;48.858;8.252;2023-03-21T10:15:40;100442.94;;;11.16;65.86
46583;BME280;32309;48.858;8.252;2023-03-21T10:17:42;100440.81;;;11.23;66.76
46583;BME280;32309;48.858;8.252;2023-03-21T10:20:35;100436.22;;;11.28;66.50
46583;BME280;32309;48.858;8.252;2023-03-21T10:22:15;100432.34;;;11.35;66.05
46583;BME280;32309;48.858;8.252;2023-03-21T10:24:19;100428.47;;;11.42;65.92
46583;BME280;32309;48.858;8.252;2023-03-21T10:26:23;100417.63;;;11.50;66.27
46583;BME280;32309;48.858;8.252;2023-03-21T10:28:31;100422.56;;;11.55;66.00
46583;BME280;32309;48.858;8.252;2023-03-21T10:33:07;100419.88;;;11.71;65.05
46583;BME280;32309;48.858;8.252;2023-03-21T10:35:12;100421.28;;;11.76;65.36
46583;BME280;32309;48.858;8.252;2023-03-21T10:37:13;100412.38;;;11.80;65.01
46583;BME280;32309;48.858;8.252;2023-03-21T10:39:37;100403.28;;;11.88;65.08
46583;BME280;32309;48.858;8.252;2023-03-21T10:41:39;100397.81;;;11.92;65.25
46583;BME280;32309;48.858;8.252;2023-03-21T10:43:42;100398.56;;;11.94;64.44
46583;BME280;32309;48.858;8.252;2023-03-21T10:45:45;100398.19;;;12.01;64.45
46583;BME280;32309;48.858;8.252;2023-03-21T10:47:47;100397.06;;;12.05;64.48
46583;BME280;32309;48.858;8.252;2023-03-21T10:49:48;100392.72;;;12.05;63.95
46583;BME280;32309;48.858;8.252;2023-03-21T10:51:48;100391.81;;;12.06;64.36
46583;BME280;32309;48.858;8.252;2023-03-21T10:53:55;100389.81;;;12.10;64.74
46583;BME280;32309;48.858;8.252;2023-03-21T10:56:05;100397.25;;;12.16;64.87
46583;BME280;32309;48.858;8.252;2023-03-21T10:58:12;100387.41;;;12.21;64.75
46583;BME280;32309;48.858;8.252;2023-03-21T11:00:19;100383.03;;;12.22;64.88
46583;BME280;32309;48.858;8.252;2023-03-21T11:04:34;100382.88;;;12.25;64.54
46583;BME280;32309;48.858;8.252;2023-03-21T11:06:37;100379.03;;;12.30;64.19
46583;BME280;32309;48.858;8.252;2023-03-21T11:08:40;100382.19;;;12.36;64.50
46583;BME280;32309;48.858;8.252;2023-03-21T11:13:01;100377.31;;;12.44;64.44
46583;BME280;32309;48.858;8.252;2023-03-21T11:17:29;100374.88;;;12.55;63.93
46583;BME280;32309;48.858;8.252;2023-03-21T11:19:32;100372.06;;;12.58;63.89
46583;BME280;32309;48.858;8.252;2023-03-21T11:21:36;100366.50;;;12.64;63.95
46583;BME280;32309;48.858;8.252;2023-03-21T11:23:46;100364.59;;;12.67;62.96
46583;BME280;32309;48.858;8.252;2023-03-21T11:25:48;100366.59;;;12.63;63.08
46583;BME280;32309;48.858;8.252;2023-03-21T11:27:53;100358.16;;;12.59;62.47
46583;BME280;32309;48.858;8.252;2023-03-21T11:29:55;100361.06;;;12.68;61.37
46583;BME280;32309;48.858;8.252;2023-03-21T11:31:59;100358.81;;;12.76;61.88
46583;BME280;32309;48.858;8.252;2023-03-21T11:34:01;100354.34;;;12.78;61.14
46583;BME280;32309;48.858;8.252;2023-03-21T11:38:24;100349.91;;;12.93;61.48
46583;BME280;32309;48.858;8.252;2023-03-21T11:40:34;100352.22;;;12.97;62.25
46583;BME280;32309;48.858;8.252;2023-03-21T11:42:39;100343.97;;;13.04;60.68
46583;BME280;32309;48.858;8.252;2023-03-21T11:44:42;100340.69;;;13.14;62.16
46583;BME280;32309;48.858;8.252;2023-03-21T11:46:43;100336.72;;;13.22;59.57
46583;BME280;32309;48.858;8.252;2023-03-21T11:48:44;100333.69;;;13.28;60.68
46583;BME280;32309;48.858;8.252;2023-03-21T11:50:47;100329.94;;;13.32;58.43
46583;BME280;32309;48.858;8.252;2023-03-21T11:53:00;100321.75;;;13.38;58.53
46583;BME280;32309;48.858;8.252;2023-03-21T11:55:16;100327.38;;;13.45;58.26
46583;BME280;32309;48.858;8.252;2023-03-21T11:59:55;100312.06;;;13.53;58.17